sensor_id;sensor_type;location;lat;lon;timestamp;temperature;humidity
48162;DHT22;33950;48.154;16.316;2022-11-09T00:01:56;10.10;99.90
48162;DHT22;33950;48.154;16.316;2022-11-09T00:04:44;10.00;99.90
48162;DHT22;33950;48.154;16.316;2022-11-09T00:07:30;9.90;99.90
48162;DHT22;33950;48.154;16.316;2022-11-09T00:10:16;9.80;99.90
48162;DHT22;33950;48.154;16.316;2022-11-09T00:13:03;9.80;99.90
48162;DHT22;33950;48.154;16.316;2022-11-09T00:15:49;9.70;99.90
48162;DHT22;33950;48.154;16.316;2022-11-09T00:18:36;9.70;99.90
48162;DHT22;33950;48.154;16.316;2022-11-09T00:21:24;9.70;99.90
48162;DHT22;33950;48.154;16.316;2022-11-09T00:24:10;9.80;99.90
48162;DHT22;33950;48.154;16.316;2022-11-09T00:26:56;9.70;99.90
48162;DHT22;33950;48.154;16.316;2022-11-09T00:29:42;9.80;99.90
48162;DHT22;33950;48.154;16.316;2022-11-09T00:32:28;9.80;99.90
48162;DHT22;33950;48.154;16.316;2022-11-09T00:35:15;9.90;99.90
48162;DHT22;33950;48.154;16.316;2022-11-09T00:38:02;10.00;99.90
48162;DHT22;33950;48.154;16.316;2022-11-09T00:40:48;10.10;99.90
48162;DHT22;33950;48.154;16.316;2022-11-09T00:43:35;10.10;99.90
48162;DHT22;33950;48.154;16.316;2022-11-09T00:46:21;10.20;99.90
48162;DHT22;33950;48.154;16.316;2022-11-09T00:49:07;10.30;99.90
48162;DHT22;33950;48.154;16.316;2022-11-09T00:51:53;10.30;99.90
48162;DHT22;33950;48.154;16.316;2022-11-09T00:54:41;10.20;99.90
48162;DHT22;33950;48.154;16.316;2022-11-09T00:57:27;10.20;99.90
48162;DHT22;33950;48.154;16.316;2022-11-09T01:00:15;10.20;99.90
48162;DHT22;33950;48.154;16.316;2022-11-09T01:03:01;10.20;99.90
48162;DHT22;33950;48.154;16.316;2022-11-09T01:05:48;10.20;99.90
48162;DHT22;33950;48.154;16.316;2022-11-09T01:08:34;10.30;99.90
48162;DHT22;33950;48.154;16.316;2022-11-09T01:11:22;10.20;99.90
48162;DHT22;33950;48.154;16.316;2022-11-09T01:14:09;10.10;99.90
48162;DHT22;33950;48.154;16.316;2022-11-09T01:16:55;10.10;99.90
48162;DHT22;33950;48.154;16.316;2022-11-09T01:19:41;10.10;99.90
48162;DHT22;33950;48.154;16.316;2022-11-09T01:22:27;10.10;99.90
48162;DHT22;33950;48.154;16.316;2022-11-09T01:25:14;10.10;99.90
48162;DHT22;33950;48.154;16.316;2022-11-09T01:28:03;10.10;99.90
48162;DHT22;33950;48.154;16.316;2022-11-09T01:30:50;10.30;99.90
48162;DHT22;33950;48.154;16.316;2022-11-09T01:33:36;10.30;99.90
48162;DHT22;33950;48.154;16.316;2022-11-09T01:36:23;10.20;99.90
48162;DHT22;33950;48.154;16.316;2022-11-09T01:39:09;10.10;99.90
48162;DHT22;33950;48.154;16.316;2022-11-09T01:41:55;10.10;99.90
48162;DHT22;33950;48.154;16.316;2022-11-09T01:44:43;10.20;99.90
48162;DHT22;33950;48.154;16.316;2022-11-09T01:47:29;10.30;99.90
48162;DHT22;33950;48.154;16.316;2022-11-09T01:50:19;10.30;99.90
48162;DHT22;33950;48.154;16.316;2022-11-09T01:53:13;10.30;99.90
48162;DHT22;33950;48.154;16.316;2022-11-09T01:56:04;10.20;99.90
48162;DHT22;33950;48.154;16.316;2022-11-09T01:58:54;10.20;99.90
48162;DHT22;33950;48.154;16.316;2022-11-09T02:01:44;10.20;99.90
48162;DHT22;33950;48.154;16.316;2022-11-09T02:04:34;10.10;99.90
48162;DHT22;33950;48.154;16.316;2022-11-09T02:07:21;10.20;99.90
48162;DHT22;33950;48.154;16.316;2022-11-09T02:10:12;10.20;99.90
48162;DHT22;33950;48.154;16.316;2022-11-09T02:12:59;10.20;99.90
48162;DHT22;33950;48.154;16.316;2022-11-09T02:15:48;10.20;99.90
48162;DHT22;33950;48.154;16.316;2022-11-09T02:18:36;10.30;99.90
48162;DHT22;33950;48.154;16.316;2022-11-09T02:21:26;10.30;99.90
48162;DHT22;33950;48.154;16.316;2022-11-09T02:24:13;10.30;99.90
48162;DHT22;33950;48.154;16.316;2022-11-09T02:27:04;10.20;99.90
48162;DHT22;33950;48.154;16.316;2022-11-09T02:29:51;10.20;99.90
48162;DHT22;33950;48.154;16.316;2022-11-09T02:32:37;10.20;99.90
48162;DHT22;33950;48.154;16.316;2022-11-09T02:35:24;10.10;99.90
48162;DHT22;33950;48.154;16.316;2022-11-09T02:38:12;9.90;99.90
48162;DHT22;33950;48.154;16.316;2022-11-09T02:40:59;9.90;99.90
48162;DHT22;33950;48.154;16.316;2022-11-09T02:43:45;9.70;99.90
48162;DHT22;33950;48.154;16.316;2022-11-09T02:46:33;9.80;99.90
48162;DHT22;33950;48.154;16.316;2022-11-09T02:49:19;9.70;99.90
48162;DHT22;33950;48.154;16.316;2022-11-09T02:52:05;9.90;99.90
48162;DHT22;33950;48.154;16.316;2022-11-09T02:54:52;10.00;99.90
48162;DHT22;33950;48.154;16.316;2022-11-09T02:57:39;10.10;99.90
48162;DHT22;33950;48.154;16.316;2022-11-09T03:00:25;10.00;99.90
48162;DHT22;33950;48.154;16.316;2022-11-09T03:03:11;10.00;99.90
48162;DHT22;33950;48.154;16.316;2022-11-09T03:05:57;10.00;99.90
48162;DHT22;33950;48.154;16.316;2022-11-09T03:08:43;10.00;99.90
48162;DHT22;33950;48.154;16.316;2022-11-09T03:11:31;10.10;99.90
48162;DHT22;33950;48.154;16.316;2022-11-09T03:14:17;10.20;99.90
48162;DHT22;33950;48.154;16.316;2022-11-09T03:17:03;10.30;99.90
48162;DHT22;33950;48.154;16.316;2022-11-09T03:19:49;10.40;99.90
48162;DHT22;33950;48.154;16.316;2022-11-09T03:22:36;10.40;99.90
48162;DHT22;33950;48.154;16.316;2022-11-09T03:25:22;10.50;99.90
48162;DHT22;33950;48.154;16.316;2022-11-09T03:28:09;10.50;99.90
48162;DHT22;33950;48.154;16.316;2022-11-09T03:30:55;10.50;99.90
48162;DHT22;33950;48.154;16.316;2022-11-09T03:33:41;10.50;99.90
48162;DHT22;33950;48.154;16.316;2022-11-09T03:36:27;10.60;99.90
48162;DHT22;33950;48.154;16.316;2022-11-09T03:39:13;10.60;99.90
48162;DHT22;33950;48.154;16.316;2022-11-09T03:42:00;10.70;99.90
48162;DHT22;33950;48.154;16.316;2022-11-09T03:44:47;10.70;99.90
48162;DHT22;33950;48.154;16.316;2022-11-09T03:47:33;10.70;99.90
48162;DHT22;33950;48.154;16.316;2022-11-09T03:50:19;10.70;99.90
48162;DHT22;33950;48.154;16.316;2022-11-09T03:53:06;10.70;99.90
48162;DHT22;33950;48.154;16.316;2022-11-09T03:55:52;10.80;99.90
48162;DHT22;33950;48.154;16.316;2022-11-09T03:58:39;10.80;99.90
48162;DHT22;33950;48.154;16.316;2022-11-09T04:01:26;10.80;99.90
48162;DHT22;33950;48.154;16.316;2022-11-09T04:04:12;10.80;99.90
48162;DHT22;33950;48.154;16.316;2022-11-09T04:06:58;10.80;99.90
48162;DHT22;33950;48.154;16.316;2022-11-09T04:09:44;10.80;99.90
48162;DHT22;33950;48.154;16.316;2022-11-09T04:12:30;10.80;99.90
48162;DHT22;33950;48.154;16.316;2022-11-09T04:15:16;10.80;99.90
48162;DHT22;33950;48.154;16.316;2022-11-09T04:18:04;10.80;99.90
48162;DHT22;33950;48.154;16.316;2022-11-09T04:20:50;10.80;99.90
48162;DHT22;33950;48.154;16.316;2022-11-09T04:23:36;10.80;99.90
48162;DHT22;33950;48.154;16.316;2022-11-09T04:26:22;10.80;99.90
48162;DHT22;33950;48.154;16.316;2022-11-09T04:29:09;10.90;99.90
48162;DHT22;33950;48.154;16.316;2022-11-09T04:31:55;10.90;99.90
48162;DHT22;33950;48.154;16.316;2022-11-09T04:34:42;10.90;99.90
48162;DHT22;33950;48.154;16.316;2022-11-09T04:37:28;10.90;99.90
48162;DHT22;33950;48.154;16.316;2022-11-09T04:40:15;10.90;99.90
48162;DHT22;33950;48.154;16.316;2022-11-09T04:43:03;10.80;99.90
48162;DHT22;33950;48.154;16.316;2022-11-09T04:45:49;10.70;99.90
48162;DHT22;33950;48.154;16.316;2022-11-09T04:48:35;10.70;99.90
48162;DHT22;33950;48.154;16.316;2022-11-09T04:51:23;10.80;99.90
48162;DHT22;33950;48.154;16.316;2022-11-09T04:54:09;10.80;99.90
48162;DHT22;33950;48.154;16.316;2022-11-09T04:56:55;10.80;99.90
48162;DHT22;33950;48.154;16.316;2022-11-09T04:59:41;10.80;99.90
48162;DHT22;33950;48.154;16.316;2022-11-09T05:02:27;10.80;99.90
48162;DHT22;33950;48.154;16.316;2022-11-09T05:05:14;10.80;99.90
48162;DHT22;33950;48.154;16.316;2022-11-09T05:08:02;10.90;99.90
48162;DHT22;33950;48.154;16.316;2022-11-09T05:10:48;10.90;99.90
48162;DHT22;33950;48.154;16.316;2022-11-09T05:13:34;10.80;99.90
48162;DHT22;33950;48.154;16.316;2022-11-09T05:16:20;10.80;99.90
48162;DHT22;33950;48.154;16.316;2022-11-09T05:19:07;10.80;99.90
48162;DHT22;33950;48.154;16.316;2022-11-09T05:21:54;10.80;99.90
48162;DHT22;33950;48.154;16.316;2022-11-09T05:24:41;10.70;99.90
48162;DHT22;33950;48.154;16.316;2022-11-09T05:27:27;10.60;99.90
48162;DHT22;33950;48.154;16.316;2022-11-09T05:30:14;10.60;99.90
48162;DHT22;33950;48.154;16.316;2022-11-09T05:33:00;10.60;99.90
48162;DHT22;33950;48.154;16.316;2022-11-09T05:35:46;10.60;99.90
48162;DHT22;33950;48.154;16.316;2022-11-09T05:38:32;10.50;99.90
48162;DHT22;33950;48.154;16.316;2022-11-09T05:41:19;10.50;99.90
48162;DHT22;33950;48.154;16.316;2022-11-09T05:44:06;10.60;99.90
48162;DHT22;33950;48.154;16.316;2022-11-09T05:46:52;10.60;99.90
48162;DHT22;33950;48.154;16.316;2022-11-09T05:49:38;10.70;99.90
48162;DHT22;33950;48.154;16.316;2022-11-09T05:52:24;10.70;99.90
48162;DHT22;33950;48.154;16.316;2022-11-09T05:55:10;10.80;99.90
48162;DHT22;33950;48.154;16.316;2022-11-09T05:57:57;10.90;99.90
48162;DHT22;33950;48.154;16.316;2022-11-09T06:00:44;10.90;99.90
48162;DHT22;33950;48.154;16.316;2022-11-09T06:03:30;11.00;99.90
48162;DHT22;33950;48.154;16.316;2022-11-09T06:06:16;10.90;99.90
48162;DHT22;33950;48.154;16.316;2022-11-09T06:09:02;10.90;99.90
48162;DHT22;33950;48.154;16.316;2022-11-09T06:11:49;10.90;99.90
48162;DHT22;33950;48.154;16.316;2022-11-09T06:14:37;10.90;99.90
48162;DHT22;33950;48.154;16.316;2022-11-09T06:17:23;10.80;99.90
48162;DHT22;33950;48.154;16.316;2022-11-09T06:20:09;10.70;99.90
48162;DHT22;33950;48.154;16.316;2022-11-09T06:22:57;10.70;99.90
48162;DHT22;33950;48.154;16.316;2022-11-09T06:25:43;10.60;99.90
48162;DHT22;33950;48.154;16.316;2022-11-09T06:28:29;10.60;99.90
48162;DHT22;33950;48.154;16.316;2022-11-09T06:31:17;10.60;99.90
48162;DHT22;33950;48.154;16.316;2022-11-09T06:34:03;10.60;99.90
48162;DHT22;33950;48.154;16.316;2022-11-09T06:36:49;10.60;99.90
48162;DHT22;33950;48.154;16.316;2022-11-09T06:39:35;10.70;99.90
48162;DHT22;33950;48.154;16.316;2022-11-09T06:42:21;10.70;99.90
48162;DHT22;33950;48.154;16.316;2022-11-09T06:45:08;10.70;99.90
48162;DHT22;33950;48.154;16.316;2022-11-09T06:47:56;10.70;99.90
48162;DHT22;33950;48.154;16.316;2022-11-09T06:50:43;10.70;99.90
48162;DHT22;33950;48.154;16.316;2022-11-09T06:53:30;10.70;99.90
48162;DHT22;33950;48.154;16.316;2022-11-09T06:56:16;10.70;99.90
48162;DHT22;33950;48.154;16.316;2022-11-09T06:59:03;10.70;99.90
48162;DHT22;33950;48.154;16.316;2022-11-09T07:01:49;10.70;99.90
48162;DHT22;33950;48.154;16.316;2022-11-09T07:04:36;10.60;99.90
48162;DHT22;33950;48.154;16.316;2022-11-09T07:07:22;10.50;99.90
48162;DHT22;33950;48.154;16.316;2022-11-09T07:10:09;10.50;99.90
48162;DHT22;33950;48.154;16.316;2022-11-09T07:12:56;10.50;99.90
48162;DHT22;33950;48.154;16.316;2022-11-09T07:15:42;10.50;99.90
48162;DHT22;33950;48.154;16.316;2022-11-09T07:18:28;10.60;99.90
48162;DHT22;33950;48.154;16.316;2022-11-09T07:21:15;10.50;99.90
48162;DHT22;33950;48.154;16.316;2022-11-09T07:24:01;10.40;99.90
48162;DHT22;33950;48.154;16.316;2022-11-09T07:26:48;10.40;99.90
48162;DHT22;33950;48.154;16.316;2022-11-09T07:29:34;10.40;99.90
48162;DHT22;33950;48.154;16.316;2022-11-09T07:32:20;10.30;99.90
48162;DHT22;33950;48.154;16.316;2022-11-09T07:35:07;10.30;99.90
48162;DHT22;33950;48.154;16.316;2022-11-09T07:37:58;10.30;99.90
48162;DHT22;33950;48.154;16.316;2022-11-09T07:40:45;10.30;99.90
48162;DHT22;33950;48.154;16.316;2022-11-09T07:43:31;10.30;99.90
48162;DHT22;33950;48.154;16.316;2022-11-09T07:46:17;10.30;99.90
48162;DHT22;33950;48.154;16.316;2022-11-09T07:49:03;10.20;99.90
48162;DHT22;33950;48.154;16.316;2022-11-09T07:51:49;10.20;99.90
48162;DHT22;33950;48.154;16.316;2022-11-09T07:54:37;10.20;99.90
48162;DHT22;33950;48.154;16.316;2022-11-09T07:57:23;10.20;99.90
48162;DHT22;33950;48.154;16.316;2022-11-09T08:00:10;10.20;99.90
48162;DHT22;33950;48.154;16.316;2022-11-09T08:02:57;10.20;99.90
48162;DHT22;33950;48.154;16.316;2022-11-09T08:05:43;10.10;99.90
48162;DHT22;33950;48.154;16.316;2022-11-09T08:08:29;10.10;99.90
48162;DHT22;33950;48.154;16.316;2022-11-09T08:11:16;10.10;99.90
48162;DHT22;33950;48.154;16.316;2022-11-09T08:14:04;10.20;99.90
48162;DHT22;33950;48.154;16.316;2022-11-09T08:16:50;10.10;99.90
48162;DHT22;33950;48.154;16.316;2022-11-09T08:19:37;10.10;99.90
48162;DHT22;33950;48.154;16.316;2022-11-09T08:22:23;10.20;99.90
48162;DHT22;33950;48.154;16.316;2022-11-09T08:25:10;10.30;99.90
48162;DHT22;33950;48.154;16.316;2022-11-09T08:27:57;10.30;99.90
48162;DHT22;33950;48.154;16.316;2022-11-09T08:30:44;10.40;99.90
48162;DHT22;33950;48.154;16.316;2022-11-09T08:33:34;10.50;99.90
48162;DHT22;33950;48.154;16.316;2022-11-09T08:36:21;10.50;99.90
48162;DHT22;33950;48.154;16.316;2022-11-09T08:39:07;10.50;99.90
48162;DHT22;33950;48.154;16.316;2022-11-09T08:41:53;10.50;99.90
48162;DHT22;33950;48.154;16.316;2022-11-09T08:44:41;10.60;99.90
48162;DHT22;33950;48.154;16.316;2022-11-09T08:47:28;10.60;99.90
48162;DHT22;33950;48.154;16.316;2022-11-09T08:50:14;10.60;99.90
48162;DHT22;33950;48.154;16.316;2022-11-09T08:53:02;10.60;99.90
48162;DHT22;33950;48.154;16.316;2022-11-09T08:55:48;10.50;99.90
48162;DHT22;33950;48.154;16.316;2022-11-09T08:58:35;10.50;99.90
48162;DHT22;33950;48.154;16.316;2022-11-09T09:01:22;10.50;99.90
48162;DHT22;33950;48.154;16.316;2022-11-09T09:04:10;10.60;99.90
48162;DHT22;33950;48.154;16.316;2022-11-09T09:06:56;10.50;99.90
48162;DHT22;33950;48.154;16.316;2022-11-09T09:09:44;10.50;99.90
48162;DHT22;33950;48.154;16.316;2022-11-09T09:12:31;10.50;99.90
48162;DHT22;33950;48.154;16.316;2022-11-09T09:15:17;10.60;99.90
48162;DHT22;33950;48.154;16.316;2022-11-09T09:18:05;10.60;99.90
48162;DHT22;33950;48.154;16.316;2022-11-09T09:20:51;10.70;99.90
48162;DHT22;33950;48.154;16.316;2022-11-09T09:23:37;10.70;99.90
48162;DHT22;33950;48.154;16.316;2022-11-09T09:26:23;10.60;99.90
48162;DHT22;33950;48.154;16.316;2022-11-09T09:29:09;10.60;99.90
48162;DHT22;33950;48.154;16.316;2022-11-09T09:31:58;10.40;99.90
48162;DHT22;33950;48.154;16.316;2022-11-09T09:34:45;10.50;99.90
48162;DHT22;33950;48.154;16.316;2022-11-09T09:37:31;10.40;99.90
48162;DHT22;33950;48.154;16.316;2022-11-09T09:40:23;10.50;99.90
48162;DHT22;33950;48.154;16.316;2022-11-09T09:43:13;10.50;99.90
48162;DHT22;33950;48.154;16.316;2022-11-09T09:46:08;10.60;99.90
48162;DHT22;33950;48.154;16.316;2022-11-09T09:49:02;10.70;99.90
48162;DHT22;33950;48.154;16.316;2022-11-09T09:51:55;10.70;99.90
48162;DHT22;33950;48.154;16.316;2022-11-09T09:54:49;10.70;99.90
48162;DHT22;33950;48.154;16.316;2022-11-09T09:57:35;10.80;99.90
48162;DHT22;33950;48.154;16.316;2022-11-09T10:00:24;10.80;99.90
48162;DHT22;33950;48.154;16.316;2022-11-09T10:03:15;10.80;99.90
48162;DHT22;33950;48.154;16.316;2022-11-09T10:06:10;10.80;99.90
48162;DHT22;33950;48.154;16.316;2022-11-09T10:09:06;10.90;99.90
48162;DHT22;33950;48.154;16.316;2022-11-09T10:11:58;10.90;99.90
48162;DHT22;33950;48.154;16.316;2022-11-09T10:15:03;10.90;99.90
48162;DHT22;33950;48.154;16.316;2022-11-09T10:18:00;10.80;99.90
48162;DHT22;33950;48.154;16.316;2022-11-09T10:20:59;10.80;99.90
48162;DHT22;33950;48.154;16.316;2022-11-09T10:24:02;10.90;99.90
48162;DHT22;33950;48.154;16.316;2022-11-09T10:26:51;10.90;99.90
48162;DHT22;33950;48.154;16.316;2022-11-09T10:29:43;10.90;99.90
48162;DHT22;33950;48.154;16.316;2022-11-09T10:32:31;10.90;99.90
48162;DHT22;33950;48.154;16.316;2022-11-09T10:35:21;10.90;99.90
48162;DHT22;33950;48.154;16.316;2022-11-09T10:38:12;10.90;99.90
48162;DHT22;33950;48.154;16.316;2022-11-09T10:41:05;10.90;99.90
48162;DHT22;33950;48.154;16.316;2022-11-09T10:43:56;11.00;99.90
48162;DHT22;33950;48.154;16.316;2022-11-09T10:47:01;11.10;99.90
48162;DHT22;33950;48.154;16.316;2022-11-09T10:50:05;11.10;99.90
48162;DHT22;33950;48.154;16.316;2022-11-09T10:52:51;11.00;99.90
48162;DHT22;33950;48.154;16.316;2022-11-09T10:55:38;11.00;99.90
48162;DHT22;33950;48.154;16.316;2022-11-09T10:58:36;11.00;99.90
48162;DHT22;33950;48.154;16.316;2022-11-09T11:01:24;11.00;99.90
48162;DHT22;33950;48.154;16.316;2022-11-09T11:04:18;11.00;99.90
48162;DHT22;33950;48.154;16.316;2022-11-09T11:07:13;10.90;99.90
48162;DHT22;33950;48.154;16.316;2022-11-09T11:10:09;10.80;99.90
48162;DHT22;33950;48.154;16.316;2022-11-09T11:13:20;10.90;99.90
48162;DHT22;33950;48.154;16.316;2022-11-09T11:16:24;10.90;99.90
48162;DHT22;33950;48.154;16.316;2022-11-09T11:19:32;10.90;99.90
48162;DHT22;33950;48.154;16.316;2022-11-09T11:22:21;10.90;99.90
48162;DHT22;33950;48.154;16.316;2022-11-09T11:25:17;11.00;99.90
48162;DHT22;33950;48.154;16.316;2022-11-09T11:28:14;11.00;99.90
48162;DHT22;33950;48.154;16.316;2022-11-09T11:31:02;11.00;99.90
48162;DHT22;33950;48.154;16.316;2022-11-09T11:33:50;10.90;99.90
48162;DHT22;33950;48.154;16.316;2022-11-09T11:36:44;10.90;99.90
48162;DHT22;33950;48.154;16.316;2022-11-09T11:39:42;10.90;99.90
48162;DHT22;33950;48.154;16.316;2022-11-09T11:42:55;10.80;99.90
48162;DHT22;33950;48.154;16.316;2022-11-09T11:45:51;10.80;99.90
48162;DHT22;33950;48.154;16.316;2022-11-09T11:52:21;10.90;99.90
48162;DHT22;33950;48.154;16.316;2022-11-09T11:55:21;10.90;99.90
48162;DHT22;33950;48.154;16.316;2022-11-09T11:58:23;10.90;99.90
48162;DHT22;33950;48.154;16.316;2022-11-09T12:01:24;10.80;99.90
48162;DHT22;33950;48.154;16.316;2022-11-09T12:04:26;10.80;99.90
48162;DHT22;33950;48.154;16.316;2022-11-09T12:07:27;10.80;99.90
48162;DHT22;33950;48.154;16.316;2022-11-09T12:10:35;10.80;99.90
48162;DHT22;33950;48.154;16.316;2022-11-09T12:13:38;10.70;99.90
48162;DHT22;33950;48.154;16.316;2022-11-09T12:16:32;10.70;99.90
48162;DHT22;33950;48.154;16.316;2022-11-09T12:19:33;10.70;99.90
48162;DHT22;33950;48.154;16.316;2022-11-09T12:22:28;10.80;99.90
48162;DHT22;33950;48.154;16.316;2022-11-09T12:25:20;10.90;99.90
48162;DHT22;33950;48.154;16.316;2022-11-09T12:28:32;11.00;99.90
48162;DHT22;33950;48.154;16.316;2022-11-09T12:31:27;11.00;99.90
48162;DHT22;33950;48.154;16.316;2022-11-09T12:34:19;11.00;99.90
48162;DHT22;33950;48.154;16.316;2022-11-09T12:37:12;11.00;99.90
48162;DHT22;33950;48.154;16.316;2022-11-09T12:40:20;11.00;99.90
48162;DHT22;33950;48.154;16.316;2022-11-09T12:43:12;11.10;99.90
48162;DHT22;33950;48.154;16.316;2022-11-09T12:46:03;11.30;99.90
48162;DHT22;33950;48.154;16.316;2022-11-09T12:48:50;11.30;99.90
48162;DHT22;33950;48.154;16.316;2022-11-09T12:51:38;11.40;99.90
48162;DHT22;33950;48.154;16.316;2022-11-09T12:54:26;11.50;99.90
48162;DHT22;33950;48.154;16.316;2022-11-09T12:57:15;11.60;99.90
48162;DHT22;33950;48.154;16.316;2022-11-09T13:00:02;11.70;99.90
48162;DHT22;33950;48.154;16.316;2022-11-09T13:02:52;11.70;99.90
48162;DHT22;33950;48.154;16.316;2022-11-09T13:05:39;11.80;99.90
48162;DHT22;33950;48.154;16.316;2022-11-09T13:08:29;11.80;99.90
48162;DHT22;33950;48.154;16.316;2022-11-09T13:11:24;12.00;99.90
48162;DHT22;33950;48.154;16.316;2022-11-09T13:14:33;12.00;99.90
48162;DHT22;33950;48.154;16.316;2022-11-09T13:20:47;12.00;99.90
48162;DHT22;33950;48.154;16.316;2022-11-09T13:23:35;11.80;99.90
48162;DHT22;33950;48.154;16.316;2022-11-09T13:26:56;11.90;99.90
48162;DHT22;33950;48.154;16.316;2022-11-09T13:29:47;12.00;99.90
48162;DHT22;33950;48.154;16.316;2022-11-09T13:32:34;11.90;99.90
48162;DHT22;33950;48.154;16.316;2022-11-09T13:35:55;11.90;99.90
48162;DHT22;33950;48.154;16.316;2022-11-09T13:39:31;11.90;99.90
48162;DHT22;33950;48.154;16.316;2022-11-09T13:42:30;11.80;99.90
48162;DHT22;33950;48.154;16.316;2022-11-09T13:45:25;11.90;99.90
48162;DHT22;33950;48.154;16.316;2022-11-09T13:48:25;12.00;99.90
48162;DHT22;33950;48.154;16.316;2022-11-09T13:51:15;12.10;99.90
48162;DHT22;33950;48.154;16.316;2022-11-09T13:54:03;12.20;99.90
48162;DHT22;33950;48.154;16.316;2022-11-09T13:56:51;12.20;99.90
48162;DHT22;33950;48.154;16.316;2022-11-09T13:59:42;12.20;99.90
48162;DHT22;33950;48.154;16.316;2022-11-09T14:02:30;12.20;99.90
48162;DHT22;33950;48.154;16.316;2022-11-09T14:05:27;12.20;99.90
48162;DHT22;33950;48.154;16.316;2022-11-09T14:08:19;12.10;99.90
48162;DHT22;33950;48.154;16.316;2022-11-09T14:11:31;12.10;99.90
48162;DHT22;33950;48.154;16.316;2022-11-09T14:14:51;12.10;99.90
48162;DHT22;33950;48.154;16.316;2022-11-09T14:17:47;12.20;99.90
48162;DHT22;33950;48.154;16.316;2022-11-09T14:20:39;12.30;99.90
48162;DHT22;33950;48.154;16.316;2022-11-09T14:23:29;12.30;99.90
48162;DHT22;33950;48.154;16.316;2022-11-09T14:26:17;12.40;99.90
48162;DHT22;33950;48.154;16.316;2022-11-09T14:29:15;12.30;99.90
48162;DHT22;33950;48.154;16.316;2022-11-09T14:32:26;12.20;99.90
48162;DHT22;33950;48.154;16.316;2022-11-09T14:35:21;12.10;99.90
48162;DHT22;33950;48.154;16.316;2022-11-09T14:38:15;12.00;99.90
48162;DHT22;33950;48.154;16.316;2022-11-09T14:41:02;12.10;99.90
48162;DHT22;33950;48.154;16.316;2022-11-09T14:43:48;12.20;99.90
48162;DHT22;33950;48.154;16.316;2022-11-09T14:46:35;12.30;99.90
48162;DHT22;33950;48.154;16.316;2022-11-09T14:49:24;12.30;99.90
48162;DHT22;33950;48.154;16.316;2022-11-09T14:52:15;12.40;99.90
48162;DHT22;33950;48.154;16.316;2022-11-09T14:55:02;12.40;99.90
48162;DHT22;33950;48.154;16.316;2022-11-09T14:57:51;12.40;99.90
48162;DHT22;33950;48.154;16.316;2022-11-09T15:00:38;12.40;99.90
48162;DHT22;33950;48.154;16.316;2022-11-09T15:03:26;12.40;99.90
48162;DHT22;33950;48.154;16.316;2022-11-09T15:06:16;12.40;99.90
48162;DHT22;33950;48.154;16.316;2022-11-09T15:09:04;12.40;99.90
48162;DHT22;33950;48.154;16.316;2022-11-09T15:11:51;12.30;99.90
48162;DHT22;33950;48.154;16.316;2022-11-09T15:14:37;12.30;99.90
48162;DHT22;33950;48.154;16.316;2022-11-09T15:17:25;12.10;99.90
48162;DHT22;33950;48.154;16.316;2022-11-09T15:20:25;12.10;99.90
48162;DHT22;33950;48.154;16.316;2022-11-09T15:23:23;12.10;99.90
48162;DHT22;33950;48.154;16.316;2022-11-09T15:26:38;12.00;99.90
48162;DHT22;33950;48.154;16.316;2022-11-09T15:29:28;12.00;99.90
48162;DHT22;33950;48.154;16.316;2022-11-09T15:32:16;12.00;99.90
48162;DHT22;33950;48.154;16.316;2022-11-09T15:35:13;11.90;99.90
48162;DHT22;33950;48.154;16.316;2022-11-09T15:37:59;12.00;99.90
48162;DHT22;33950;48.154;16.316;2022-11-09T15:40:47;12.00;99.90
48162;DHT22;33950;48.154;16.316;2022-11-09T15:43:33;12.00;99.90
48162;DHT22;33950;48.154;16.316;2022-11-09T15:46:24;12.00;99.90
48162;DHT22;33950;48.154;16.316;2022-11-09T15:49:16;11.90;99.90
48162;DHT22;33950;48.154;16.316;2022-11-09T15:52:02;11.70;99.90
48162;DHT22;33950;48.154;16.316;2022-11-09T15:54:49;11.50;99.90
48162;DHT22;33950;48.154;16.316;2022-11-09T15:57:36;11.40;99.90
48162;DHT22;33950;48.154;16.316;2022-11-09T16:00:22;11.30;99.90
48162;DHT22;33950;48.154;16.316;2022-11-09T16:03:09;11.20;99.90
48162;DHT22;33950;48.154;16.316;2022-11-09T16:05:55;11.20;99.90
48162;DHT22;33950;48.154;16.316;2022-11-09T16:08:41;11.10;99.90
48162;DHT22;33950;48.154;16.316;2022-11-09T16:11:27;11.10;99.90
48162;DHT22;33950;48.154;16.316;2022-11-09T16:14:14;11.00;99.90
48162;DHT22;33950;48.154;16.316;2022-11-09T16:17:02;11.00;99.90
48162;DHT22;33950;48.154;16.316;2022-11-09T16:19:50;11.00;99.90
48162;DHT22;33950;48.154;16.316;2022-11-09T16:22:36;11.10;99.90
48162;DHT22;33950;48.154;16.316;2022-11-09T16:25:22;11.10;99.90
48162;DHT22;33950;48.154;16.316;2022-11-09T16:28:09;11.10;99.90
48162;DHT22;33950;48.154;16.316;2022-11-09T16:30:56;11.10;99.90
48162;DHT22;33950;48.154;16.316;2022-11-09T16:33:42;11.10;99.90
48162;DHT22;33950;48.154;16.316;2022-11-09T16:36:29;11.20;99.90
48162;DHT22;33950;48.154;16.316;2022-11-09T16:39:15;11.30;99.90
48162;DHT22;33950;48.154;16.316;2022-11-09T16:42:06;11.30;99.90
48162;DHT22;33950;48.154;16.316;2022-11-09T16:44:57;11.40;99.90
48162;DHT22;33950;48.154;16.316;2022-11-09T16:47:47;11.40;99.90
48162;DHT22;33950;48.154;16.316;2022-11-09T16:50:34;11.30;99.90
48162;DHT22;33950;48.154;16.316;2022-11-09T16:53:20;11.20;99.90
48162;DHT22;33950;48.154;16.316;2022-11-09T16:56:07;11.20;99.90
48162;DHT22;33950;48.154;16.316;2022-11-09T16:58:53;11.20;99.90
48162;DHT22;33950;48.154;16.316;2022-11-09T17:01:39;11.20;99.90
48162;DHT22;33950;48.154;16.316;2022-11-09T17:04:26;11.20;99.90
48162;DHT22;33950;48.154;16.316;2022-11-09T17:07:12;11.10;99.90
48162;DHT22;33950;48.154;16.316;2022-11-09T17:09:58;11.20;99.90
48162;DHT22;33950;48.154;16.316;2022-11-09T17:12:44;11.20;99.90
48162;DHT22;33950;48.154;16.316;2022-11-09T17:15:30;11.00;99.90
48162;DHT22;33950;48.154;16.316;2022-11-09T17:18:17;10.90;99.90
48162;DHT22;33950;48.154;16.316;2022-11-09T17:21:08;10.80;99.90
48162;DHT22;33950;48.154;16.316;2022-11-09T17:23:55;10.80;99.90
48162;DHT22;33950;48.154;16.316;2022-11-09T17:26:41;10.60;99.90
48162;DHT22;33950;48.154;16.316;2022-11-09T17:29:27;10.60;99.90
48162;DHT22;33950;48.154;16.316;2022-11-09T17:32:13;10.50;99.90
48162;DHT22;33950;48.154;16.316;2022-11-09T17:34:59;10.50;99.90
48162;DHT22;33950;48.154;16.316;2022-11-09T17:37:47;10.40;99.90
48162;DHT22;33950;48.154;16.316;2022-11-09T17:40:33;10.40;99.90
48162;DHT22;33950;48.154;16.316;2022-11-09T17:43:19;10.30;99.90